Time;durP1;ratioP1;P1;durP2;ratioP2;P2;SDS_P1;SDS_P2;PMS_P1;PMS_P2;Temp;Humidity;BMP_temperature;BMP_pressure;BME280_temperature;BME280_humidity;BME280_pressure;Samples;Min_cycle;Max_cycle;Signal;HPM_P1;HPM_P2
2022/11/06 00:03:33;;;;;;;37.03;23.07;;;;;;;8.65;100.00;99332.28;4053706;86;21031;-85
2022/11/06 00:09:34;;;;;;;38.15;23.35;;;;;;;8.67;100.00;99342.28;4063541;86;21035;-85
2022/11/06 00:15:36;;;;;;;36.68;22.55;;;;;;;8.66;100.00;99350.27;4066441;86;21603;-85
2022/11/06 00:21:39;;;;;;;43.20;24.30;;;;;;;8.61;100.00;99343.70;4058513;86;20999;-85
2022/11/06 00:27:42;;;;;;;39.95;22.15;;;;;;;8.56;100.00;99355.67;4042076;86;21031;-85
2022/11/06 00:34:21;;;;;;;34.73;21.65;;;;;;;8.52;100.00;99360.83;4050430;86;21027;-84
2022/11/06 00:47:15;;;;;;;37.13;22.80;;;;;;;8.54;100.00;99363.41;4041363;86;21105;-85
2022/11/06 00:53:16;;;;;;;37.33;22.02;;;;;;;8.51;100.00;99363.32;4036386;86;21145;-85
2022/11/06 00:59:18;;;;;;;43.00;23.18;;;;;;;8.46;100.00;99365.74;4059108;85;21555;-84
2022/11/06 01:05:19;;;;;;;39.53;23.60;;;;;;;8.42;100.00;99370.89;4057803;85;20995;-85
2022/11/06 01:18:19;;;;;;;43.92;25.57;;;;;;;8.38;100.00;99365.34;4059618;86;21048;-85
2022/11/06 01:24:50;;;;;;;40.67;23.30;;;;;;;8.37;100.00;99365.12;4071121;85;21015;-84
2022/11/06 01:31:33;;;;;;;38.10;22.00;;;;;;;8.35;100.00;99361.95;4062563;86;21030;-85
2022/11/06 01:37:36;;;;;;;40.70;23.77;;;;;;;8.33;100.00;99364.82;4064829;85;21072;-85
2022/11/06 01:43:57;;;;;;;42.88;22.80;;;;;;;8.34;100.00;99364.47;4057269;85;21050;-85
2022/11/06 01:50:09;;;;;;;38.65;23.98;;;;;;;8.34;100.00;99365.03;4059455;86;21026;-85
2022/11/06 01:56:13;;;;;;;38.17;21.60;;;;;;;8.31;100.00;99362.45;4055571;85;21503;-85
2022/11/06 02:09:24;;;;;;;34.15;19.15;;;;;;;8.26;100.00;99371.44;4037397;86;21637;-84
2022/11/06 02:15:47;;;;;;;36.05;20.25;;;;;;;8.22;100.00;99377.36;4053976;86;21079;-84
2022/11/06 02:22:21;;;;;;;37.23;20.32;;;;;;;8.20;100.00;99381.80;4067409;85;21087;-84
2022/11/06 02:28:29;;;;;;;35.20;20.27;;;;;;;8.17;100.00;99377.61;4051141;85;21054;-84
2022/11/06 02:34:38;;;;;;;39.23;21.40;;;;;;;8.12;100.00;99381.38;4069174;85;21067;-84
2022/11/06 02:40:49;;;;;;;35.13;20.17;;;;;;;8.12;100.00;99391.49;3979749;88;21050;-84
2022/11/06 02:46:59;;;;;;;35.48;20.30;;;;;;;8.13;100.00;99397.19;4066543;85;21097;-85
2022/11/06 02:53:29;;;;;;;42.88;20.95;;;;;;;8.13;100.00;99386.28;4058118;86;21055;-84
2022/11/06 02:59:52;;;;;;;43.28;22.10;;;;;;;8.12;100.00;99390.13;4073747;85;21062;-84
2022/11/06 03:06:14;;;;;;;38.15;20.75;;;;;;;8.11;100.00;99397.53;4054569;86;21983;-84
2022/11/06 03:12:35;;;;;;;39.03;21.82;;;;;;;8.12;100.00;99389.56;4067540;86;21031;-85
2022/11/06 03:19:12;;;;;;;35.88;21.75;;;;;;;8.09;100.00;99388.91;4064933;86;20979;-84
2022/11/06 03:25:43;;;;;;;38.60;20.77;;;;;;;7.99;100.00;99380.66;4057968;86;21051;-85
2022/11/06 03:32:01;;;;;;;44.80;22.05;;;;;;;7.89;100.00;99381.14;3961067;88;21115;-84
2022/11/06 03:38:12;;;;;;;42.93;23.02;;;;;;;7.90;100.00;99382.75;4084898;85;21055;-85
2022/11/06 03:44:19;;;;;;;37.60;22.02;;;;;;;7.89;100.00;99379.01;4065692;86;21122;-84
2022/11/06 03:50:39;;;;;;;37.83;21.15;;;;;;;7.89;100.00;99393.41;4060107;85;22106;-85
2022/11/06 03:56:45;;;;;;;44.15;22.60;;;;;;;7.92;100.00;99404.98;4058615;85;21177;-85
2022/11/06 04:03:03;;;;;;;43.30;22.70;;;;;;;7.93;100.00;99409.88;4060862;85;21094;-84
2022/11/06 04:15:35;;;;;;;37.30;21.52;;;;;;;7.90;100.00;99416.02;4054584;86;21038;-84
2022/11/06 04:22:13;;;;;;;42.23;23.80;;;;;;;7.91;100.00;99414.87;4072429;86;21043;-85
2022/11/06 04:28:32;;;;;;;41.33;22.13;;;;;;;7.88;100.00;99427.27;3967889;88;21156;-84
2022/11/06 04:35:13;;;;;;;38.60;23.92;;;;;;;7.81;100.00;99430.37;4041135;86;21098;-84
2022/11/06 04:41:36;;;;;;;40.12;23.67;;;;;;;7.74;100.00;99436.41;3941180;88;21603;-84
2022/11/06 04:47:38;;;;;;;40.10;23.30;;;;;;;7.74;100.00;99436.97;4048180;86;21031;-84
2022/11/06 04:53:53;;;;;;;42.70;24.10;;;;;;;7.74;100.00;99425.50;4068254;86;21525;-84
2022/11/06 04:59:55;;;;;;;42.35;24.30;;;;;;;7.74;100.00;99431.52;4053099;86;21058;-84
2022/11/06 05:05:56;;;;;;;36.63;22.77;;;;;;;7.73;100.00;99434.02;4060749;86;21074;-85
2022/11/06 05:11:59;;;;;;;39.50;23.07;;;;;;;7.74;100.00;99448.67;4067461;86;21082;-84
2022/11/06 05:18:01;;;;;;;40.10;22.27;;;;;;;7.73;100.00;99447.66;4026199;86;21054;-84
2022/11/06 05:31:07;;;;;;;43.00;23.22;;;;;;;7.56;100.00;99445.20;4064948;86;21078;-84
2022/11/06 05:37:12;;;;;;;40.60;22.70;;;;;;;7.51;100.00;99438.63;4055345;85;21597;-84
2022/11/06 05:43:13;;;;;;;39.15;22.17;;;;;;;7.51;100.00;99444.06;4066521;86;21671;-85
2022/11/06 05:49:15;;;;;;;47.65;23.92;;;;;;;7.53;100.00;99462.23;4051022;86;21098;-85
2022/11/06 05:55:19;;;;;;;46.90;25.15;;;;;;;7.45;100.00;99470.77;4059321;86;21485;-85
2022/11/06 06:01:22;;;;;;;37.13;23.12;;;;;;;7.49;100.00;99472.21;4053371;86;21366;-85
2022/11/06 06:07:24;;;;;;;39.75;23.07;;;;;;;7.52;100.00;99472.88;4062147;85;21054;-85
2022/11/06 06:13:26;;;;;;;45.12;25.57;;;;;;;7.58;100.00;99486.52;4058473;85;21082;-85
2022/11/06 06:19:29;;;;;;;45.00;25.80;;;;;;;7.66;100.00;99485.58;4060553;85;21022;-84
2022/11/06 06:32:36;;;;;;;46.55;24.82;;;;;;;7.70;100.00;99492.75;4043850;86;21074;-85
2022/11/06 06:38:37;;;;;;;37.03;21.05;;;;;;;7.69;100.00;99494.42;4043645;87;21086;-85
2022/11/06 06:44:39;;;;;;;48.10;25.97;;;;;;;7.68;100.00;99499.09;4042029;86;21031;-84
2022/11/06 06:50:40;;;;;;;51.60;25.88;;;;;;;7.60;100.00;99515.00;4042205;86;21050;-85
2022/11/06 06:57:21;;;;;;;47.38;25.43;;;;;;;7.68;100.00;99518.73;4067965;85;21041;-85
2022/11/06 07:03:23;;;;;;;45.98;26.45;;;;;;;7.74;100.00;99521.45;4065184;86;21042;-85
2022/11/06 07:09:24;;;;;;;51.60;26.70;;;;;;;7.77;100.00;99509.30;4054566;86;21855;-84
2022/11/06 07:15:27;;;;;;;49.77;25.80;;;;;;;7.84;100.00;99499.98;4070662;85;21015;-84
2022/11/06 07:21:34;;;;;;;43.65;26.07;;;;;;;7.79;100.00;99501.58;3984740;87;21845;-84
2022/11/06 07:27:35;;;;;;;45.03;26.82;;;;;;;7.72;100.00;99506.80;4046389;86;21479;-85
2022/11/06 07:33:44;;;;;;;42.80;26.45;;;;;;;7.86;100.00;99504.50;4065118;85;21019;-85
2022/11/06 07:39:45;;;;;;;42.17;25.00;;;;;;;7.94;100.00;99500.05;4047903;86;21106;-84
2022/11/06 07:45:46;;;;;;;44.60;24.52;;;;;;;8.09;100.00;99511.61;4062262;85;21065;-84
2022/11/06 07:58:34;;;;;;;46.60;29.85;;;;;;;8.08;100.00;99499.09;4222789;83;75865;-85
2022/11/06 08:04:36;;;;;;;40.45;23.02;;;;;;;8.03;100.00;99487.86;4248764;83;21046;-84
2022/11/06 08:10:42;;;;;;;42.30;20.95;;;;;;;8.26;100.00;99493.61;4242496;82;21462;-85
2022/11/06 08:16:43;;;;;;;37.35;23.05;;;;;;;8.39;100.00;99490.27;4243472;81;21039;-84
2022/11/06 08:22:45;;;;;;;41.63;24.20;;;;;;;8.55;100.00;99495.97;4233139;83;21026;-85
2022/11/06 08:28:47;;;;;;;41.53;23.70;;;;;;;8.61;100.00;99493.23;4263024;83;21026;-85
2022/11/06 08:41:52;;;;;;;41.37;21.55;;;;;;;8.78;100.00;99488.00;4245996;83;21716;-84
2022/11/06 08:47:53;;;;;;;34.47;20.43;;;;;;;8.80;100.00;99487.09;4231987;83;21042;-85
2022/11/06 08:54:07;;;;;;;33.48;20.55;;;;;;;8.82;100.00;99485.58;4117421;85;21077;-84
2022/11/06 09:00:15;;;;;;;34.67;19.85;;;;;;;8.88;100.00;99484.77;4244438;82;21075;-85
2022/11/06 09:06:16;;;;;;;38.73;20.10;;;;;;;8.93;100.00;99481.18;4073667;85;21073;-84
2022/11/06 09:12:18;;;;;;;39.53;19.55;;;;;;;8.94;100.00;99484.72;4106146;85;21039;-84
2022/11/06 09:18:19;;;;;;;37.83;20.55;;;;;;;9.06;100.00;99478.59;4096653;85;21030;-85
2022/11/06 09:24:20;;;;;;;38.17;20.17;;;;;;;9.19;100.00;99482.80;4252499;82;21072;-84
2022/11/06 09:30:23;;;;;;;36.30;20.15;;;;;;;9.23;100.00;99487.79;4247882;83;21070;-84
2022/11/06 09:36:24;;;;;;;32.40;18.42;;;;;;;9.06;100.00;99488.72;4240349;83;20983;-86
2022/11/06 09:42:44;;;;;;;38.05;19.17;;;;;;;9.07;100.00;99484.83;4239412;83;21042;-85
2022/11/06 09:48:50;;;;;;;32.70;19.15;;;;;;;9.10;100.00;99494.48;4250554;83;21066;-84
2022/11/06 09:55:01;;;;;;;38.73;19.45;;;;;;;9.15;100.00;99489.32;4226866;83;21764;-84
2022/11/06 10:01:19;;;;;;;29.75;18.27;;;;;;;9.12;100.00;99488.66;4237193;83;21690;-85
2022/11/06 10:07:36;;;;;;;30.23;16.42;;;;;;;9.05;100.00;99489.28;4238512;83;21138;-84
2022/11/06 10:14:07;;;;;;;31.50;17.40;;;;;;;9.06;100.00;99479.16;4255141;83;21702;-84
2022/11/06 10:20:23;;;;;;;28.67;14.60;;;;;;;9.19;100.00;99480.06;4240353;83;21011;-84
2022/11/06 10:26:36;;;;;;;27.65;16.37;;;;;;;9.20;100.00;99473.47;4225492;83;21012;-84
2022/11/06 10:33:07;;;;;;;35.70;16.00;;;;;;;9.21;100.00;99462.75;4244168;83;21508;-85
2022/11/06 10:39:34;;;;;;;31.62;16.40;;;;;;;9.23;100.00;99455.57;4251672;83;21522;-84
2022/11/06 10:45:38;;;;;;;31.50;17.83;;;;;;;9.24;100.00;99444.29;4202116;83;21153;-84
2022/11/06 10:58:45;;;;;;;37.63;17.40;;;;;;;9.21;100.00;99429.17;4030560;85;22016;-85
2022/11/06 11:04:46;;;;;;;28.80;15.53;;;;;;;9.22;100.00;99425.31;4160203;85;21630;-86
2022/11/06 11:10:50;;;;;;;34.60;16.57;;;;;;;9.26;100.00;99422.08;4120856;85;21102;-84
2022/11/06 11:16:54;;;;;;;31.68;14.73;;;;;;;9.30;100.00;99410.08;4166242;85;21572;-85
2022/11/06 11:29:44;;;;;;;29.52;14.68;;;;;;;9.49;100.00;99406.59;4130314;85;21091;-85
2022/11/06 11:35:50;;;;;;;28.10;15.20;;;;;;;9.53;100.00;99397.34;4160344;85;21064;-85
2022/11/06 11:41:52;;;;;;;;;;;;;;;9.64;100.00;99385.83;4155419;85;21094;-85
2022/11/06 11:48:01;;;;;;;24.15;12.40;;;;;;;9.74;100.00;99387.40;4125215;85;20143;-85
2022/11/06 11:54:22;;;;;;;28.20;13.88;;;;;;;9.82;100.00;99380.16;4139888;85;21053;-84
2022/11/06 12:00:24;;;;;;;25.82;13.15;;;;;;;9.95;100.00;99380.20;4149904;85;21584;-85
2022/11/06 12:06:34;;;;;;;24.52;14.10;;;;;;;10.00;100.00;99368.41;4154760;85;21051;-85
2022/11/06 12:12:36;;;;;;;35.23;16.35;;;;;;;10.04;100.00;99366.52;4170727;85;20973;-86
2022/11/06 12:18:55;;;;;;;30.97;16.20;;;;;;;10.01;100.00;99363.14;4166168;85;21076;-85
2022/11/06 12:25:20;;;;;;;34.13;16.87;;;;;;;10.09;100.00;99358.63;4169837;85;21032;-85
2022/11/06 12:31:44;;;;;;;29.50;17.40;;;;;;;10.10;100.00;99355.52;4141456;84;21119;-85
2022/11/06 12:38:20;;;;;;;40.58;19.80;;;;;;;10.18;100.00;99353.14;4135907;85;21035;-84
2022/11/06 12:44:23;;;;;;;35.60;20.15;;;;;;;10.16;100.00;99358.77;4129177;85;21961;-85
2022/11/06 12:50:43;;;;;;;32.88;20.70;;;;;;;10.13;100.00;99358.90;4166372;85;21064;-85
2022/11/06 12:57:14;;;;;;;36.80;21.27;;;;;;;10.10;100.00;99359.63;4145086;85;21035;-84
2022/11/06 13:03:43;;;;;;;47.43;23.02;;;;;;;10.02;100.00;99361.21;4168160;85;21868;-85
2022/11/06 13:10:00;;;;;;;33.08;19.60;;;;;;;9.90;100.00;99358.64;4156710;85;21035;-85
2022/11/06 13:16:53;;;;;;;31.27;18.55;;;;;;;9.82;100.00;99359.66;4143150;85;21024;-85
2022/11/06 13:23:04;;;;;;;31.20;17.25;;;;;;;9.70;100.00;99365.25;4146678;85;21043;-84
2022/11/06 13:29:11;;;;;;;30.77;16.65;;;;;;;9.52;100.00;99360.81;4159978;85;21129;-84
2022/11/06 13:35:16;;;;;;;31.37;17.25;;;;;;;9.50;100.00;99357.06;4147658;85;21621;-84
2022/11/06 13:41:41;;;;;;;29.00;16.05;;;;;;;9.54;100.00;99353.02;4134842;84;21638;-85
2022/11/06 13:47:55;;;;;;;31.60;15.78;;;;;;;9.53;100.00;99368.64;4159283;85;21521;-84
2022/11/06 13:54:37;;;;;;;30.68;16.07;;;;;;;9.39;100.00;99375.73;4164644;85;21629;-84
2022/11/06 14:00:53;;;;;;;24.87;14.07;;;;;;;9.26;100.00;99369.61;4124285;85;21456;-84
2022/11/06 14:06:58;;;;;;;22.80;14.65;;;;;;;9.15;100.00;99371.88;4138164;85;21031;-83
2022/11/06 14:13:02;;;;;;;26.48;13.78;;;;;;;9.07;100.00;99364.66;4128155;85;21004;-84
2022/11/06 14:19:25;;;;;;;22.10;12.68;;;;;;;9.00;100.00;99354.96;4104363;85;21064;-84
2022/11/06 14:25:47;;;;;;;20.90;12.53;;;;;;;8.89;100.00;99348.46;4139062;85;21049;-84
2022/11/06 14:32:12;;;;;;;17.42;11.20;;;;;;;8.69;100.00;99344.09;4135446;85;21075;-83
2022/11/06 14:38:33;;;;;;;18.87;9.65;;;;;;;8.55;100.00;99345.12;4138696;85;20965;-84
2022/11/06 14:44:42;;;;;;;16.30;8.78;;;;;;;8.45;100.00;99342.91;4148788;85;21879;-85
2022/11/06 14:50:48;;;;;;;18.27;9.28;;;;;;;8.33;100.00;99337.55;4122163;84;21045;-84
2022/11/06 14:56:53;;;;;;;18.30;8.93;;;;;;;8.21;100.00;99335.64;4153261;84;21033;-84
2022/11/06 15:02:59;;;;;;;21.50;12.50;;;;;;;8.12;100.00;99326.05;4244123;83;21004;-84
2022/11/06 15:09:27;;;;;;;20.95;11.80;;;;;;;8.01;100.00;99328.51;4191789;83;21570;-84
2022/11/06 15:15:30;;;;;;;17.12;10.03;;;;;;;7.92;100.00;99311.52;4214419;83;21045;-84
2022/11/06 15:22:06;;;;;;;19.02;9.73;;;;;;;7.86;100.00;99312.93;4215709;83;21004;-84
2022/11/06 15:28:15;;;;;;;29.32;15.35;;;;;;;7.85;100.00;99309.96;4236870;83;21027;-84
2022/11/06 15:34:38;;;;;;;27.87;16.62;;;;;;;7.86;100.00;99291.89;4239073;83;21015;-84
2022/11/06 15:40:41;;;;;;;25.25;14.75;;;;;;;7.88;100.00;99304.61;4238800;83;21617;-84
2022/11/06 15:46:55;;;;;;;29.23;15.55;;;;;;;7.94;100.00;99310.02;4258133;83;20983;-83
2022/11/06 15:53:19;;;;;;;33.73;19.52;;;;;;;7.90;100.00;99308.34;4122873;84;21037;-84
2022/11/06 15:59:21;;;;;;;39.42;19.50;;;;;;;7.89;100.00;99304.82;4253141;83;20991;-84
2022/11/06 16:05:24;;;;;;;34.23;20.77;;;;;;;7.88;100.00;99301.08;4244240;83;21031;-84
2022/11/06 16:11:33;;;;;;;36.48;21.02;;;;;;;7.90;100.00;99301.53;4245186;83;20996;-84
2022/11/06 16:17:34;;;;;;;28.55;15.28;;;;;;;7.94;100.00;99296.39;4211167;83;21941;-84
2022/11/06 16:24:04;;;;;;;28.45;16.32;;;;;;;7.96;100.00;99295.48;4229903;83;20987;-84
2022/11/06 16:30:11;;;;;;;29.67;17.02;;;;;;;7.96;100.00;99285.94;4247329;83;21126;-84
2022/11/06 16:36:13;;;;;;;27.32;16.87;;;;;;;7.96;100.00;99272.31;4242342;83;20992;-84
2022/11/06 16:42:34;;;;;;;33.40;18.17;;;;;;;7.95;100.00;99272.66;4239929;83;21937;-84
2022/11/06 16:48:42;;;;;;;35.00;19.50;;;;;;;7.97;100.00;99273.88;4243917;83;22254;-85
2022/11/06 16:54:52;;;;;;;36.00;18.52;;;;;;;8.01;100.00;99271.25;4244245;83;21555;-83
2022/11/06 17:01:03;;;;;;;36.68;21.82;;;;;;;8.02;100.00;99274.78;4249564;83;21029;-84
2022/11/06 17:07:05;;;;;;;42.33;23.18;;;;;;;8.02;100.00;99263.28;4238170;82;21003;-84
2022/11/06 17:13:18;;;;;;;41.05;23.62;;;;;;;8.03;100.00;99262.16;4207806;83;21015;-84
2022/11/06 17:19:21;;;;;;;41.55;21.87;;;;;;;8.05;100.00;99263.94;4246306;83;21015;-85
2022/11/06 17:25:22;;;;;;;41.13;21.48;;;;;;;8.10;100.00;99272.45;4252231;83;20975;-86
2022/11/06 17:31:25;;;;;;;37.67;20.37;;;;;;;8.12;100.00;99271.52;4237264;83;20987;-84
2022/11/06 17:37:26;;;;;;;45.45;22.75;;;;;;;8.14;100.00;99273.33;4098068;84;21113;-84
2022/11/06 17:43:27;;;;;;;54.35;27.10;;;;;;;8.15;100.00;99268.88;4223393;83;21019;-84
2022/11/06 17:49:29;;;;;;;46.28;24.82;;;;;;;8.16;100.00;99270.45;4235288;83;20960;-84
2022/11/06 17:55:31;;;;;;;40.85;21.85;;;;;;;8.19;100.00;99268.38;4246262;83;20999;-84
2022/11/06 18:01:32;;;;;;;36.03;19.10;;;;;;;8.20;100.00;99262.37;4249595;83;20988;-84
2022/11/06 18:07:33;;;;;;;44.83;19.85;;;;;;;8.23;100.00;99259.77;4258752;83;21487;-84
2022/11/06 18:13:35;;;;;;;39.18;19.02;;;;;;;8.26;100.00;99254.16;4250598;83;20979;-84
2022/11/06 18:19:37;;;;;;;39.20;19.15;;;;;;;8.26;100.00;99243.26;4147415;84;21058;-84
2022/11/06 18:25:40;;;;;;;36.88;20.30;;;;;;;8.27;100.00;99255.17;4165229;84;21025;-84
2022/11/06 18:31:41;;;;;;;34.38;19.30;;;;;;;8.29;100.00;99248.00;4178144;83;21049;-84
2022/11/06 18:37:42;;;;;;;39.55;20.85;;;;;;;8.28;100.00;99245.87;4186476;83;21017;-84
2022/11/06 18:43:44;;;;;;;39.20;20.48;;;;;;;8.30;100.00;99245.52;4141955;83;20985;-84
2022/11/06 18:49:45;;;;;;;37.83;20.45;;;;;;;8.29;100.00;99232.44;4160407;85;21607;-84
2022/11/06 18:55:47;;;;;;;40.95;21.15;;;;;;;8.28;100.00;99236.33;4176024;85;20981;-85
2022/11/06 19:01:48;;;;;;;41.60;21.52;;;;;;;8.28;100.00;99227.34;4162995;85;21519;-86
2022/11/06 19:07:49;;;;;;;40.15;21.75;;;;;;;8.28;100.00;99224.05;4099915;85;21081;-84
2022/11/06 19:13:50;;;;;;;39.98;22.10;;;;;;;8.28;100.00;99215.06;4261678;83;20999;-84
2022/11/06 19:19:52;;;;;;;43.28;21.93;;;;;;;8.29;100.00;99209.26;4254946;83;20979;-85
2022/11/06 19:25:55;;;;;;;49.53;24.57;;;;;;;8.29;100.00;99206.53;4208381;83;20991;-85
2022/11/06 19:32:00;;;;;;;43.73;24.50;;;;;;;8.27;100.00;99201.99;4231044;83;21000;-84
2022/11/06 19:38:02;;;;;;;42.60;24.15;;;;;;;8.24;100.00;99211.48;4256300;83;20996;-85
2022/11/06 19:44:03;;;;;;;41.80;24.30;;;;;;;8.18;100.00;99195.11;4257732;83;21047;-84
2022/11/06 19:50:05;;;;;;;50.20;25.15;;;;;;;8.10;100.00;99193.39;4249394;83;21646;-84
2022/11/06 19:56:09;;;;;;;43.98;23.83;;;;;;;8.02;100.00;99199.22;4242272;83;21095;-84
2022/11/06 20:02:12;;;;;;;42.90;24.32;;;;;;;7.97;100.00;99194.83;4257041;83;21627;-84
2022/11/06 20:08:14;;;;;;;46.42;24.82;;;;;;;7.94;100.00;99194.17;4249906;83;21976;-84
2022/11/06 20:14:20;;;;;;;42.10;24.23;;;;;;;7.91;100.00;99191.35;4122567;84;21067;-84
2022/11/06 20:20:20;;;;;;;47.25;24.67;;;;;;;7.86;100.00;99197.09;4245740;83;20972;-84
2022/11/06 20:26:31;;;;;;;48.50;25.68;;;;;;;7.80;100.00;99190.30;4217723;83;21047;-84
2022/11/06 20:32:32;;;;;;;46.10;25.60;;;;;;;7.68;100.00;99191.19;4260857;83;21854;-84
2022/11/06 20:38:34;;;;;;;51.30;25.80;;;;;;;7.56;100.00;99180.94;4250150;83;20968;-84
2022/11/06 20:44:35;;;;;;;49.67;27.25;;;;;;;7.51;100.00;99172.46;4244974;83;22042;-84
2022/11/06 20:50:36;;;;;;;55.40;28.65;;;;;;;7.53;100.00;99172.11;4233216;83;21034;-85
2022/11/06 20:56:37;;;;;;;50.43;26.55;;;;;;;7.56;100.00;99174.12;4139265;84;21013;-85
2022/11/06 21:02:39;;;;;;;59.58;29.50;;;;;;;7.57;100.00;99163.44;4226504;83;21806;-83
2022/11/06 21:08:41;;;;;;;59.42;30.10;;;;;;;7.54;100.00;99171.76;4228857;83;21011;-84
2022/11/06 21:14:45;;;;;;;50.88;27.48;;;;;;;7.49;100.00;99169.84;4230355;83;20995;-86
2022/11/06 21:20:46;;;;;;;53.08;28.70;;;;;;;7.44;100.00;99176.34;4261450;83;21566;-84
2022/11/06 21:26:47;;;;;;;50.30;27.87;;;;;;;7.42;100.00;99177.26;4240866;83;21019;-84
2022/11/06 21:32:48;;;;;;;51.40;29.18;;;;;;;7.46;100.00;99176.00;4242708;83;21543;-84
2022/11/06 21:38:50;;;;;;;57.25;27.48;;;;;;;7.46;100.00;99174.08;4256985;83;21008;-84
2022/11/06 21:44:53;;;;;;;56.70;30.65;;;;;;;7.44;100.00;99158.64;4241929;83;21383;-84
2022/11/06 21:51:05;;;;;;;52.50;28.55;;;;;;;7.39;100.00;99158.12;4243431;83;21858;-84
2022/11/06 21:57:06;;;;;;;55.63;30.90;;;;;;;7.32;100.00;99156.56;4227020;83;21029;-85
2022/11/06 22:03:08;;;;;;;61.98;29.63;;;;;;;7.27;100.00;99150.80;4110936;84;21062;-84
2022/11/06 22:09:12;;;;;;;51.05;29.48;;;;;;;7.21;100.00;99158.21;4156499;84;21037;-84
2022/11/06 22:15:14;;;;;;;62.78;36.15;;;;;;;7.11;100.00;99154.06;4150525;84;20982;-84
2022/11/06 22:21:23;;;;;;;74.97;37.23;;;;;;;7.05;100.00;99153.30;4138008;84;20990;-84
2022/11/06 22:27:24;;;;;;;70.45;34.20;;;;;;;7.03;100.00;99146.06;4152395;84;20990;-84
2022/11/06 22:33:27;;;;;;;63.17;33.35;;;;;;;7.01;100.00;99142.89;4150130;85;21567;-85
2022/11/06 22:39:28;;;;;;;64.22;32.15;;;;;;;6.94;100.00;99138.63;4142178;84;21980;-84
2022/11/06 22:45:37;;;;;;;63.80;37.15;;;;;;;6.86;100.00;99139.57;4171950;84;21069;-85
2022/11/06 22:51:38;;;;;;;65.85;34.75;;;;;;;6.75;100.00;99136.53;4138089;85;21861;-85
2022/11/06 22:57:39;;;;;;;66.17;33.33;;;;;;;6.67;100.00;99129.89;4152524;84;21042;-85
2022/11/06 23:03:41;;;;;;;67.53;37.78;;;;;;;6.62;100.00;99113.81;4151266;84;21014;-85
2022/11/06 23:09:43;;;;;;;72.32;35.05;;;;;;;6.57;100.00;99118.93;4149730;84;21571;-85
2022/11/06 23:15:44;;;;;;;60.48;32.23;;;;;;;6.55;100.00;99110.31;4129494;84;21006;-85
2022/11/06 23:28:30;;;;;;;61.83;34.50;;;;;;;6.49;100.00;99094.02;4143519;84;21600;-84
2022/11/06 23:34:32;;;;;;;58.23;31.02;;;;;;;6.49;100.00;99102.73;4146041;84;21065;-83
2022/11/06 23:40:33;;;;;;;54.55;29.02;;;;;;;6.50;100.00;99101.03;4140466;84;21058;-84
2022/11/06 23:46:35;;;;;;;51.25;26.70;;;;;;;6.56;100.00;99105.67;4175680;84;21009;-84
2022/11/06 23:59:31;;;;;;;50.48;26.85;;;;;;;6.65;100.00;99103.59;4178970;84;21017;-84
